Time;durP1;ratioP1;P1;durP2;ratioP2;P2;SDS_P1;SDS_P2;PMS_P1;PMS_P2;Temp;Humidity;BMP_temperature;BMP_pressure;BME280_temperature;BME280_humidity;BME280_pressure;Samples;Min_cycle;Max_cycle;Signal;HPM_P1;HPM_P2
2022/06/21 00:01:00;;;;;;;7.50;1.90;;;12.20;99.90;;;;;;5029583;28;20216;-62
2022/06/21 00:03:30;;;;;;;13.23;2.00;;;12.10;99.90;;;;;;5023656;28;20219;-62
2022/06/21 00:05:57;;;;;;;8.48;1.80;;;12.10;99.90;;;;;;5033554;28;20227;-61
2022/06/21 00:08:27;;;;;;;7.25;1.85;;;12.10;99.90;;;;;;5031216;28;20201;-62
2022/06/21 00:10:54;;;;;;;6.18;1.88;;;11.90;99.90;;;;;;5024735;28;20697;-61
2022/06/21 00:13:23;;;;;;;6.93;2.17;;;12.00;99.90;;;;;;5040860;28;20545;-62
2022/06/21 00:15:51;;;;;;;13.45;2.28;;;12.00;99.90;;;;;;5030204;28;20216;-62
2022/06/21 00:18:20;;;;;;;6.10;2.50;;;12.00;99.90;;;;;;5038134;28;20207;-62
2022/06/21 00:20:49;;;;;;;11.02;2.33;;;12.00;99.90;;;;;;5026251;28;20521;-62
2022/06/21 00:23:18;;;;;;;7.22;2.45;;;11.90;99.90;;;;;;5031889;28;20204;-62
2022/06/21 00:25:46;;;;;;;10.00;2.17;;;10.70;99.90;;;;;;5017782;28;28819;-62
2022/06/21 00:28:13;;;;;;;7.57;2.30;;;11.90;99.90;;;;;;5043340;28;20686;-62
2022/06/21 00:30:40;;;;;;;9.75;2.17;;;11.90;99.90;;;;;;5048973;28;20207;-62
2022/06/21 00:33:12;;;;;;;4.97;1.95;;;12.70;99.90;;;;;;5027961;28;20274;-62
2022/06/21 00:35:41;;;;;;;4.88;2.10;;;11.90;99.90;;;;;;5034774;28;20197;-62
2022/06/21 00:38:13;;;;;;;4.72;2.33;;;11.90;99.90;;;;;;5031965;28;21292;-62
2022/06/21 00:40:40;;;;;;;9.52;2.10;;;12.50;99.90;;;;;;5044907;28;20583;-62
2022/06/21 00:43:13;;;;;;;5.25;1.90;;;12.00;99.90;;;;;;5027990;28;20965;-62
2022/06/21 00:45:44;;;;;;;10.30;2.20;;;12.00;99.90;;;;;;5041085;28;20235;-62
2022/06/21 00:48:14;;;;;;;9.15;2.15;;;12.10;99.90;;;;;;5034258;28;20329;-62
2022/06/21 00:50:45;;;;;;;5.93;2.08;;;12.10;99.90;;;;;;5043556;28;20197;-62
2022/06/21 00:53:18;;;;;;;11.25;1.70;;;12.10;99.90;;;;;;5034544;28;20411;-62
2022/06/21 00:55:51;;;;;;;8.95;2.22;;;12.10;99.90;;;;;;5044989;28;20845;-62
2022/06/21 00:58:20;;;;;;;8.55;2.70;;;12.10;99.90;;;;;;5029051;28;20406;-62
2022/06/21 01:00:56;;;;;;;6.13;2.03;;;12.10;99.90;;;;;;5044734;28;20193;-62
2022/06/21 01:03:27;;;;;;;7.53;2.22;;;12.10;99.90;;;;;;5032443;28;20211;-62
2022/06/21 01:05:56;;;;;;;6.78;1.90;;;12.10;99.90;;;;;;5042445;28;20247;-62
2022/06/21 01:08:29;;;;;;;5.35;1.85;;;12.00;99.90;;;;;;5036256;28;20201;-62
2022/06/21 01:11:00;;;;;;;8.40;2.45;;;12.00;99.90;;;;;;5029922;28;21065;-62
2022/06/21 01:13:30;;;;;;;5.70;2.00;;;12.00;99.90;;;;;;5029338;28;20206;-62
2022/06/21 01:15:57;;;;;;;8.25;2.47;;;12.00;99.90;;;;;;5050999;28;20200;-62
2022/06/21 01:18:25;;;;;;;5.72;1.90;;;11.90;99.90;;;;;;5019382;28;20236;-62
2022/06/21 01:20:55;;;;;;;4.35;1.98;;;11.80;99.90;;;;;;5051562;28;20202;-62
2022/06/21 01:23:38;;;;;;;9.23;2.38;;;11.80;99.90;;;;;;5035640;28;20297;-62
2022/06/21 01:26:22;;;;;;;6.32;1.85;;;11.70;99.90;;;;;;5020057;28;20228;-62
2022/06/21 01:28:52;;;;;;;8.35;2.33;;;11.70;99.90;;;;;;5026538;28;20211;-62
2022/06/21 01:31:19;;;;;;;14.32;2.08;;;11.70;99.90;;;;;;5028034;28;20204;-62
2022/06/21 01:33:46;;;;;;;4.13;1.90;;;11.70;99.90;;;;;;5027305;28;20709;-62
2022/06/21 01:36:18;;;;;;;3.83;2.17;;;11.70;99.90;;;;;;5035534;28;20766;-61
2022/06/21 01:38:50;;;;;;;6.50;2.40;;;11.70;99.90;;;;;;5038648;28;20232;-62
2022/06/21 01:41:21;;;;;;;4.00;1.98;;;11.60;99.90;;;;;;5034819;28;20202;-62
2022/06/21 01:43:53;;;;;;;7.25;2.13;;;10.80;99.90;;;;;;5034771;28;20222;-62
2022/06/21 01:46:26;;;;;;;9.05;2.35;;;10.50;99.90;;;;;;5029948;28;20255;-62
2022/06/21 01:48:56;;;;;;;8.50;2.28;;;11.50;99.90;;;;;;5036374;28;20197;-62
2022/06/21 01:51:26;;;;;;;4.93;1.90;;;11.50;99.90;;;;;;5027169;28;20310;-62
2022/06/21 01:53:54;;;;;;;5.82;2.10;;;11.40;99.90;;;;;;5038710;28;20863;-61
2022/06/21 01:56:27;;;;;;;12.55;2.38;;;11.40;99.90;;;;;;5019207;28;20882;-62
2022/06/21 01:58:59;;;;;;;7.97;2.05;;;11.40;99.90;;;;;;5041374;28;20201;-62
2022/06/21 02:01:31;;;;;;;6.47;2.08;;;11.40;99.90;;;;;;5018572;28;20512;-62
2022/06/21 02:04:01;;;;;;;3.10;1.77;;;11.50;99.90;;;;;;5027075;28;20209;-62
2022/06/21 02:06:34;;;;;;;7.75;2.47;;;11.50;99.90;;;;;;5031303;28;20453;-62
2022/06/21 02:09:05;;;;;;;6.00;2.30;;;11.50;99.90;;;;;;5040262;28;20599;-62
2022/06/21 02:11:36;;;;;;;4.10;1.58;;;11.50;99.90;;;;;;5027007;28;20197;-62
2022/06/21 02:17:07;;;;;;;6.25;1.88;;;12.60;99.90;;;;;;5026900;28;20213;-62
2022/06/21 02:19:39;;;;;;;4.65;2.08;;;11.40;99.90;;;;;;5021925;28;20208;-62
2022/06/21 02:22:06;;;;;;;7.00;2.15;;;11.40;99.90;;;;;;5050010;28;20205;-62
2022/06/21 02:24:33;;;;;;;4.85;1.60;;;11.40;99.90;;;;;;5025543;28;20717;-62
2022/06/21 02:27:02;;;;;;;5.30;2.17;;;11.30;99.90;;;;;;5034780;28;20221;-62
2022/06/21 02:29:31;;;;;;;6.55;2.17;;;11.30;99.90;;;;;;5036836;28;20224;-62
2022/06/21 02:31:59;;;;;;;2.95;1.98;;;11.30;99.90;;;;;;5022769;28;20833;-62
2022/06/21 02:34:31;;;;;;;6.07;1.90;;;11.20;99.90;;;;;;5010262;28;20683;-62
2022/06/21 02:37:01;;;;;;;6.95;1.92;;;11.00;99.90;;;;;;5039581;28;20208;-61
2022/06/21 02:39:32;;;;;;;11.20;3.13;;;11.20;99.90;;;;;;5024341;28;20203;-62
2022/06/21 02:42:02;;;;;;;5.68;2.10;;;11.20;99.90;;;;;;5029658;28;20211;-62
2022/06/21 02:44:35;;;;;;;7.75;2.10;;;11.20;99.90;;;;;;5043511;28;20700;-62
2022/06/21 02:47:08;;;;;;;11.10;2.72;;;11.30;99.90;;;;;;5034250;28;20714;-62
2022/06/21 02:49:38;;;;;;;9.65;2.50;;;11.30;99.90;;;;;;5017735;28;20237;-62
2022/06/21 02:52:12;;;;;;;6.65;2.08;;;11.20;99.90;;;;;;5044660;28;20216;-62
2022/06/21 02:54:44;;;;;;;6.50;2.67;;;11.20;99.90;;;;;;5026730;28;20224;-62
2022/06/21 02:57:17;;;;;;;8.18;2.05;;;11.10;99.90;;;;;;5034174;28;20220;-62
2022/06/21 02:59:46;;;;;;;3.60;2.10;;;11.20;99.90;;;;;;5032708;28;20666;-62
2022/06/21 03:02:15;;;;;;;10.45;2.15;;;10.30;99.90;;;;;;5042965;28;20231;-62
2022/06/21 03:04:47;;;;;;;4.78;2.15;;;11.30;99.90;;;;;;5015280;28;20721;-62
2022/06/21 03:07:20;;;;;;;7.05;1.85;;;11.20;99.90;;;;;;5029607;28;21320;-62
2022/06/21 03:09:47;;;;;;;5.18;2.22;;;11.10;99.90;;;;;;5029225;28;20208;-62
2022/06/21 03:12:18;;;;;;;7.10;2.28;;;12.00;99.90;;;;;;5024475;28;20243;-61
2022/06/21 03:14:49;;;;;;;8.50;2.38;;;10.80;99.90;;;;;;5042838;28;20918;-62
2022/06/21 03:17:19;;;;;;;8.57;2.40;;;11.10;99.90;;;;;;5043624;28;20236;-62
2022/06/21 03:19:50;;;;;;;5.22;2.00;;;11.10;99.90;;;;;;5023537;28;20209;-62
2022/06/21 03:22:19;;;;;;;7.80;2.47;;;11.10;99.90;;;;;;5036361;28;20571;-62
2022/06/21 03:24:47;;;;;;;4.90;2.22;;;11.10;99.90;;;;;;5017674;28;20544;-62
2022/06/21 03:27:23;;;;;;;7.22;2.63;;;12.00;99.90;;;;;;5038567;28;20220;-62
2022/06/21 03:29:52;;;;;;;4.45;2.03;;;11.20;99.90;;;;;;5028492;28;21364;-62
2022/06/21 03:32:18;;;;;;;9.07;2.15;;;11.20;99.90;;;;;;5026719;28;20565;-62
2022/06/21 03:34:46;;;;;;;4.70;2.20;;;11.00;99.90;;;;;;5019756;28;20209;-62
2022/06/21 03:37:13;;;;;;;8.85;2.85;;;11.00;99.90;;;;;;5017878;28;20433;-62
2022/06/21 03:42:30;;;;;;;14.02;2.42;;;11.10;99.90;;;;;;5023174;28;20341;-62
2022/06/21 03:45:02;;;;;;;6.68;2.10;;;11.10;99.90;;;;;;5041330;28;20254;-62
2022/06/21 03:47:34;;;;;;;8.85;2.55;;;11.20;99.90;;;;;;5033633;28;20469;-62
2022/06/21 03:50:04;;;;;;;4.03;2.75;;;11.20;99.90;;;;;;5013668;28;20224;-62
2022/06/21 03:52:43;;;;;;;12.35;2.97;;;11.20;99.90;;;;;;5023516;28;23466;-62
2022/06/21 03:55:21;;;;;;;5.82;2.90;;;11.40;99.90;;;;;;5014453;28;20215;-62
2022/06/21 03:57:56;;;;;;;10.82;2.38;;;11.40;99.90;;;;;;5030532;28;20203;-62
2022/06/21 04:00:28;;;;;;;8.88;2.70;;;11.50;99.90;;;;;;5019142;28;20208;-62
2022/06/21 04:02:59;;;;;;;7.88;2.80;;;11.50;99.90;;;;;;5032612;28;20224;-62
2022/06/21 04:05:33;;;;;;;7.85;2.13;;;11.50;99.90;;;;;;5014114;28;20235;-62
2022/06/21 04:08:03;;;;;;;7.07;2.55;;;11.50;99.90;;;;;;5023513;28;20667;-62
2022/06/21 04:10:35;;;;;;;7.13;2.38;;;11.60;99.90;;;;;;5020754;28;20258;-62
2022/06/21 04:13:08;;;;;;;9.73;2.60;;;11.70;99.90;;;;;;5032240;28;20227;-62
2022/06/21 04:15:42;;;;;;;5.90;2.65;;;11.60;99.90;;;;;;5033567;28;20207;-62
2022/06/21 04:18:18;;;;;;;5.45;1.77;;;11.60;99.90;;;;;;5033896;28;20345;-62
2022/06/21 04:20:51;;;;;;;6.15;2.38;;;11.40;99.90;;;;;;5019003;28;20444;-61
2022/06/21 04:23:25;;;;;;;2.95;1.90;;;11.70;99.90;;;;;;5031981;28;20205;-62
2022/06/21 04:25:57;;;;;;;8.32;2.65;;;11.70;99.90;;;;;;5013668;28;20521;-62
2022/06/21 04:28:30;;;;;;;9.07;1.92;;;11.70;99.90;;;;;;5038236;28;20232;-61
2022/06/21 04:31:05;;;;;;;9.65;2.38;;;11.70;99.90;;;;;;5021886;28;20843;-62
2022/06/21 04:33:35;;;;;;;7.53;2.47;;;11.80;99.90;;;;;;5030885;28;20201;-62
2022/06/21 04:36:09;;;;;;;7.88;2.17;;;11.90;99.90;;;;;;5033163;22;20597;-62
2022/06/21 04:38:41;;;;;;;8.48;2.83;;;11.90;99.90;;;;;;5035791;28;20204;-63
2022/06/21 04:41:12;;;;;;;6.45;2.30;;;12.00;99.90;;;;;;5026668;28;20205;-62
2022/06/21 04:43:45;;;;;;;8.73;2.65;;;12.00;99.90;;;;;;5029864;28;20193;-62
2022/06/21 04:46:21;;;;;;;5.93;2.05;;;12.00;99.90;;;;;;5030558;28;20318;-62
2022/06/21 04:48:59;;;;;;;6.90;2.20;;;12.10;99.90;;;;;;5033373;28;20225;-63
2022/06/21 04:51:33;;;;;;;10.70;2.60;;;12.20;99.90;;;;;;5018533;28;20221;-62
2022/06/21 04:54:04;;;;;;;8.40;2.33;;;12.20;99.90;;;;;;5025041;28;20270;-63
2022/06/21 04:56:43;;;;;;;5.40;2.40;;;12.40;99.90;;;;;;5026243;28;20228;-63
2022/06/21 04:59:15;;;;;;;9.00;2.00;;;12.40;99.90;;;;;;5027331;28;21005;-63
2022/06/21 05:01:43;;;;;;;6.63;2.30;;;12.50;99.90;;;;;;5012941;28;21285;-62
2022/06/21 05:04:15;;;;;;;5.55;2.10;;;12.50;99.90;;;;;;5046757;28;20204;-65
2022/06/21 05:06:43;;;;;;;8.75;2.00;;;12.50;99.90;;;;;;5029595;28;20233;-62
2022/06/21 05:09:15;;;;;;;9.60;2.67;;;12.70;99.90;;;;;;5028336;28;20809;-62
2022/06/21 05:11:42;;;;;;;7.70;2.63;;;12.70;99.90;;;;;;5013363;28;20233;-63
2022/06/21 05:14:18;;;;;;;8.82;2.13;;;12.70;99.90;;;;;;5029645;28;20217;-62
2022/06/21 05:16:47;;;;;;;7.78;2.45;;;12.90;99.90;;;;;;5018069;28;20794;-62
2022/06/21 05:19:18;;;;;;;5.70;2.00;;;12.80;99.90;;;;;;5043720;28;20251;-62
2022/06/21 05:21:49;;;;;;;3.33;1.90;;;13.20;99.90;;;;;;5022397;28;20201;-62
2022/06/21 05:24:17;;;;;;;5.13;2.20;;;13.20;99.90;;;;;;5023379;28;20225;-63
2022/06/21 05:26:48;;;;;;;6.45;2.67;;;13.00;99.90;;;;;;5034201;28;20217;-62
2022/06/21 05:29:21;;;;;;;8.80;2.72;;;13.10;99.90;;;;;;5039488;28;20239;-63
2022/06/21 05:31:54;;;;;;;4.57;2.17;;;13.10;99.90;;;;;;5025927;28;20231;-63
2022/06/21 05:34:24;;;;;;;9.77;2.22;;;13.20;99.90;;;;;;5045311;28;20211;-63
2022/06/21 05:36:57;;;;;;;3.58;1.83;;;13.20;99.90;;;;;;5039264;28;20356;-63
2022/06/21 05:39:30;;;;;;;6.18;2.28;;;13.40;99.90;;;;;;5025439;28;20206;-63
2022/06/21 05:42:01;;;;;;;2.60;1.80;;;13.30;99.90;;;;;;5044248;28;20297;-63
2022/06/21 05:44:32;;;;;;;11.77;2.05;;;13.40;99.90;;;;;;5023294;28;20211;-63
2022/06/21 05:47:05;;;;;;;5.80;2.10;;;13.50;99.90;;;;;;5027636;28;20215;-63
2022/06/21 05:49:34;;;;;;;7.13;1.92;;;13.50;99.90;;;;;;5046231;28;20252;-62
2022/06/21 05:52:04;;;;;;;4.95;2.03;;;13.60;99.90;;;;;;5044007;28;23359;-63
2022/06/21 05:54:35;;;;;;;8.35;1.80;;;13.60;99.90;;;;;;5034545;28;20407;-63
2022/06/21 05:57:03;;;;;;;9.27;2.28;;;13.70;99.90;;;;;;5030107;28;20689;-63
2022/06/21 05:59:30;;;;;;;10.85;2.17;;;13.90;99.90;;;;;;5043179;28;20445;-62
2022/06/21 06:02:04;;;;;;;9.07;2.30;;;14.00;99.90;;;;;;5033928;28;20599;-62
2022/06/21 06:04:38;;;;;;;7.25;2.13;;;14.20;99.90;;;;;;5036523;28;20778;-62
2022/06/21 06:07:06;;;;;;;14.82;2.47;;;14.00;99.90;;;;;;5043212;28;20198;-63
2022/06/21 06:09:39;;;;;;;4.28;2.00;;;14.00;99.90;;;;;;5009566;28;24295;-62
2022/06/21 06:12:13;;;;;;;10.43;2.05;;;14.00;99.90;;;;;;5038894;28;20208;-62
2022/06/21 06:14:45;;;;;;;4.55;1.85;;;14.00;44.70;;;;;;5053313;28;20203;-63
2022/06/21 06:17:23;;;;;;;6.43;2.38;;;14.00;45.10;;;;;;5012602;28;20756;-63
2022/06/21 06:19:56;;;;;;;6.18;2.30;;;14.10;40.30;;;;;;5051610;28;20505;-63
2022/06/21 06:22:30;;;;;;;9.85;2.42;;;14.10;32.20;;;;;;5039865;28;20231;-63
2022/06/21 06:25:02;;;;;;;5.03;1.80;;;14.30;33.80;;;;;;5036368;28;20612;-63
2022/06/21 06:27:36;;;;;;;7.45;1.85;;;14.20;31.60;;;;;;5041154;28;20888;-63
2022/06/21 06:30:07;;;;;;;3.60;1.70;;;14.20;17.70;;;;;;5024699;28;20511;-62
2022/06/21 06:32:39;;;;;;;5.97;2.00;;;14.30;1.00;;;;;;5024454;28;20533;-62
2022/06/21 06:35:14;;;;;;;7.82;2.30;;;14.30;1.00;;;;;;5035068;28;20205;-62
2022/06/21 06:37:43;;;;;;;7.78;2.30;;;14.20;99.90;;;;;;5031639;28;20258;-63
2022/06/21 06:40:21;;;;;;;6.03;1.75;;;14.30;99.90;;;;;;5020406;28;20210;-63
2022/06/21 06:42:51;;;;;;;5.43;1.80;;;14.30;99.90;;;;;;5042047;28;20299;-63
2022/06/21 06:45:20;;;;;;;5.13;1.92;;;14.20;99.90;;;;;;5039142;28;20662;-63
2022/06/21 06:47:52;;;;;;;5.30;1.92;;;14.30;99.90;;;;;;5034593;28;20282;-63
2022/06/21 06:50:23;;;;;;;7.20;2.30;;;14.40;99.90;;;;;;5034551;28;20200;-63
2022/06/21 06:52:54;;;;;;;4.15;2.13;;;14.30;99.90;;;;;;5031253;28;20205;-63
2022/06/21 06:55:28;;;;;;;6.57;1.95;;;14.50;99.90;;;;;;5019199;28;20219;-62
2022/06/21 06:58:00;;;;;;;5.32;1.92;;;14.50;99.90;;;;;;5035637;28;20329;-62
2022/06/21 07:00:31;;;;;;;3.85;1.63;;;14.50;99.90;;;;;;5031284;28;20200;-63
2022/06/21 07:03:03;;;;;;;5.60;2.15;;;14.60;99.90;;;;;;5027737;28;20205;-62
2022/06/21 07:05:36;;;;;;;7.97;1.88;;;14.60;99.90;;;;;;5031127;28;20613;-63
2022/06/21 07:08:12;;;;;;;7.28;2.05;;;14.60;99.90;;;;;;5022219;28;20201;-63
2022/06/21 07:10:39;;;;;;;7.55;2.78;;;14.60;99.90;;;;;;5040143;28;20464;-62
2022/06/21 07:13:08;;;;;;;11.27;2.53;;;14.70;99.90;;;;;;5023596;28;20579;-62
2022/06/21 07:15:39;;;;;;;7.25;2.35;;;14.80;99.90;;;;;;5027241;28;20317;-62
2022/06/21 07:18:13;;;;;;;4.63;1.80;;;14.90;99.90;;;;;;5043579;28;20828;-62
2022/06/21 07:20:41;;;;;;;8.32;2.42;;;14.90;99.90;;;;;;5026201;28;20986;-62
2022/06/21 07:23:14;;;;;;;6.78;2.63;;;15.00;99.90;;;;;;5046874;28;20576;-62
2022/06/21 07:25:44;;;;;;;7.38;1.92;;;15.00;99.90;;;;;;5031807;28;20256;-62
2022/06/21 07:28:16;;;;;;;10.00;2.45;;;15.10;99.90;;;;;;5024805;28;20212;-62
2022/06/21 07:30:47;;;;;;;4.85;1.85;;;15.00;99.90;;;;;;5034392;28;20546;-62
2022/06/21 07:33:19;;;;;;;10.98;2.25;;;15.10;99.90;;;;;;5028027;28;20324;-62
2022/06/21 07:35:50;;;;;;;5.68;2.17;;;15.40;99.90;;;;;;5042352;28;20193;-62
2022/06/21 07:38:22;;;;;;;6.18;2.10;;;15.10;99.90;;;;;;5024184;28;20230;-62
2022/06/21 07:40:53;;;;;;;6.40;1.88;;;15.20;99.90;;;;;;5027776;28;20213;-62
2022/06/21 07:43:25;;;;;;;5.72;2.20;;;15.10;99.90;;;;;;5026173;28;20528;-63
2022/06/21 07:45:55;;;;;;;9.75;2.17;;;15.10;99.90;;;;;;5037235;28;20667;-62
2022/06/21 07:48:28;;;;;;;5.32;1.95;;;15.20;99.90;;;;;;5036657;28;20240;-62
2022/06/21 07:50:58;;;;;;;8.07;2.03;;;15.20;99.90;;;;;;5045177;28;20204;-62
2022/06/21 07:53:29;;;;;;;4.63;1.50;;;15.10;99.90;;;;;;5023015;28;20219;-62
2022/06/21 07:56:01;;;;;;;5.43;1.90;;;15.10;99.90;;;;;;5036314;28;20224;-62
2022/06/21 07:58:33;;;;;;;7.97;2.63;;;15.10;99.90;;;;;;5010993;28;20224;-62
2022/06/21 08:06:45;;;;;;;10.65;1.98;;;15.20;99.90;;;;;;5027928;28;20259;-62
2022/06/21 08:09:23;;;;;;;6.53;2.13;;;15.20;99.90;;;;;;5034885;28;20626;-62
2022/06/21 08:11:53;;;;;;;9.10;2.20;;;15.20;99.90;;;;;;5036958;28;20211;-62
2022/06/21 08:14:21;;;;;;;7.68;2.05;;;15.20;99.90;;;;;;5020200;28;20209;-62
2022/06/21 08:16:55;;;;;;;5.50;2.22;;;15.20;99.90;;;;;;5036951;28;20188;-62
2022/06/21 08:19:29;;;;;;;5.57;1.73;;;15.20;99.90;;;;;;5029408;28;20205;-62
2022/06/21 08:22:02;;;;;;;6.15;2.42;;;15.40;99.90;;;;;;5041444;28;20194;-62
2022/06/21 08:24:35;;;;;;;5.18;2.15;;;15.30;99.90;;;;;;5019277;28;20216;-62
2022/06/21 08:27:11;;;;;;;7.63;2.30;;;15.30;99.90;;;;;;5040484;28;20201;-62
2022/06/21 08:29:44;;;;;;;9.70;2.25;;;15.40;99.90;;;;;;5030450;28;20231;-62
2022/06/21 08:32:17;;;;;;;7.25;2.05;;;15.40;99.90;;;;;;5022022;28;20618;-62
2022/06/21 08:34:48;;;;;;;6.55;1.95;;;15.50;99.90;;;;;;5033676;28;20476;-62
2022/06/21 08:37:22;;;;;;;6.45;1.40;;;15.50;99.90;;;;;;5029568;28;20231;-62
2022/06/21 08:39:54;;;;;;;6.97;2.10;;;15.50;99.90;;;;;;5015525;28;20213;-62
2022/06/21 08:42:52;;;;;;;3.22;1.63;;;15.70;99.90;;;;;;5028223;28;20227;-62
2022/06/21 08:45:42;;;;;;;4.07;1.55;;;15.80;99.90;;;;;;5012608;28;20753;-62
2022/06/21 08:48:39;;;;;;;5.22;1.77;;;15.80;99.90;;;;;;5017531;28;20700;-62
2022/06/21 08:51:34;;;;;;;5.82;1.80;;;15.80;99.90;;;;;;5034986;28;20227;-62
2022/06/21 08:54:10;;;;;;;6.30;1.70;;;15.80;99.90;;;;;;5046500;28;20199;-62
2022/06/21 08:56:42;;;;;;;3.65;1.50;;;15.80;99.90;;;;;;5015701;28;20812;-62
2022/06/21 08:59:21;;;;;;;8.55;1.83;;;15.80;99.90;;;;;;5023099;28;20232;-61
2022/06/21 09:01:56;;;;;;;7.63;2.10;;;15.80;99.90;;;;;;5029306;28;20219;-62
2022/06/21 09:04:28;;;;;;;5.00;1.70;;;15.90;99.90;;;;;;5004131;28;24905;-62
2022/06/21 09:07:19;;;;;;;6.05;1.65;;;16.00;99.90;;;;;;5040759;28;20339;-63
2022/06/21 09:10:04;;;;;;;3.40;1.80;;;16.00;99.90;;;;;;5037405;28;20236;-62
2022/06/21 09:12:43;;;;;;;6.80;1.88;;;16.00;99.90;;;;;;5032288;28;20402;-63
2022/06/21 09:15:43;;;;;;;2.35;1.50;;;16.00;99.90;;;;;;5027537;28;20213;-63
2022/06/21 09:18:26;;;;;;;5.32;1.80;;;16.00;99.90;;;;;;4996003;28;20577;-63
2022/06/21 09:21:05;;;;;;;6.00;2.10;;;16.00;99.90;;;;;;5023104;28;20441;-62
2022/06/21 09:23:56;;;;;;;3.15;1.63;;;16.10;99.90;;;;;;5035103;28;20845;-62
2022/06/21 09:26:33;;;;;;;7.78;2.00;;;16.20;99.90;;;;;;5020427;28;20427;-63
2022/06/21 09:29:11;;;;;;;2.92;1.63;;;16.30;99.90;;;;;;5042484;28;20275;-62
2022/06/21 09:31:45;;;;;;;4.20;1.85;;;16.30;99.90;;;;;;5034616;28;20397;-62
2022/06/21 09:34:21;;;;;;;4.22;1.88;;;16.40;99.90;;;;;;5020717;28;20200;-63
2022/06/21 09:37:00;;;;;;;6.97;1.45;;;16.40;99.90;;;;;;5048229;28;20278;-62
2022/06/21 09:39:33;;;;;;;2.40;1.42;;;16.40;99.90;;;;;;5038276;28;20425;-62
2022/06/21 09:42:10;;;;;;;5.65;1.90;;;15.80;99.90;;;;;;5033125;28;20201;-62
2022/06/21 09:44:42;;;;;;;5.50;1.65;;;16.60;99.90;;;;;;5037488;28;20453;-63
2022/06/21 09:47:20;;;;;;;3.42;1.60;;;16.70;99.90;;;;;;5019710;28;20542;-62
2022/06/21 09:49:54;;;;;;;3.15;1.42;;;16.90;99.90;;;;;;5021471;28;20236;-63
2022/06/21 09:52:30;;;;;;;5.63;1.73;;;17.00;99.90;;;;;;5021009;28;20369;-62
2022/06/21 09:55:08;;;;;;;4.03;1.67;;;17.20;99.90;;;;;;5040195;28;20216;-62
2022/06/21 09:57:41;;;;;;;5.75;2.00;;;17.20;99.90;;;;;;5029054;28;20205;-62
2022/06/21 10:00:16;;;;;;;3.47;1.70;;;17.30;99.90;;;;;;5022129;28;20856;-62
2022/06/21 10:02:57;;;;;;;5.75;1.90;;;17.20;99.90;;;;;;5019593;28;20220;-62
2022/06/21 10:05:32;;;;;;;5.53;1.70;;;17.50;99.90;;;;;;5023526;28;20236;-62
2022/06/21 10:08:12;;;;;;;4.47;1.30;;;17.40;99.90;;;;;;5014635;28;20324;-63
2022/06/21 10:11:00;;;;;;;4.90;1.67;;;17.50;99.90;;;;;;5043481;28;20220;-62
2022/06/21 10:13:49;;;;;;;8.45;1.77;;;17.50;99.90;;;;;;5025469;28;20221;-62
2022/06/21 10:16:29;;;;;;;5.15;1.77;;;17.60;99.90;;;;;;5011994;28;20197;-62
2022/06/21 10:19:06;;;;;;;5.13;1.80;;;17.60;99.90;;;;;;5046128;28;20197;-62
2022/06/21 10:21:50;;;;;;;5.47;1.80;;;17.70;99.90;;;;;;5025045;28;20562;-62
2022/06/21 10:24:51;;;;;;;3.67;1.88;;;17.80;99.90;;;;;;5011757;28;20327;-62
2022/06/21 10:27:49;;;;;;;6.15;1.50;;;17.50;99.90;;;;;;5031794;28;20217;-62
2022/06/21 10:30:39;;;;;;;2.05;1.50;;;17.90;99.90;;;;;;5017587;28;20583;-62
2022/06/21 10:33:21;;;;;;;4.75;1.88;;;18.00;99.90;;;;;;5012740;28;20204;-62
2022/06/21 10:36:02;;;;;;;8.95;2.30;;;18.10;99.90;;;;;;5036070;28;20233;-62
2022/06/21 10:38:50;;;;;;;5.93;1.75;;;18.30;99.90;;;;;;5009546;28;21080;-63
2022/06/21 10:41:39;;;;;;;5.32;1.95;;;18.20;99.90;;;;;;5036901;28;20733;-62
2022/06/21 10:44:34;;;;;;;5.85;1.75;;;18.10;99.90;;;;;;5042999;28;20285;-63
2022/06/21 10:47:04;;;;;;;3.05;1.55;;;18.10;99.90;;;;;;5015006;28;20197;-63
2022/06/21 10:49:45;;;;;;;2.03;1.35;;;18.10;99.90;;;;;;5018455;28;20228;-62
2022/06/21 10:52:36;;;;;;;4.25;1.58;;;18.00;99.90;;;;;;5017949;28;20247;-62
2022/06/21 10:55:27;;;;;;;6.90;1.73;;;18.00;99.90;;;;;;5003685;28;21685;-62
2022/06/21 10:58:01;;;;;;;5.10;1.60;;;18.30;99.90;;;;;;5043527;28;20189;-62
2022/06/21 11:03:34;;;;;;;4.43;1.52;;;18.20;99.90;;;;;;5021130;28;20240;-62
2022/06/21 11:06:14;;;;;;;2.42;1.33;;;18.40;99.90;;;;;;5046825;28;20193;-62
2022/06/21 11:08:54;;;;;;;2.72;1.40;;;18.40;99.90;;;;;;5034587;28;20213;-62
2022/06/21 11:11:27;;;;;;;5.70;1.85;;;18.50;99.90;;;;;;5041459;28;20235;-62
2022/06/21 11:14:17;;;;;;;3.33;1.60;;;18.60;99.90;;;;;;5034044;22;20255;-62
2022/06/21 11:16:54;;;;;;;3.40;1.77;;;18.60;99.90;;;;;;5019819;28;20194;-62
2022/06/21 11:19:30;;;;;;;4.63;1.65;;;18.70;99.90;;;;;;5003967;28;20205;-62
2022/06/21 11:22:19;;;;;;;5.05;1.55;;;18.70;99.90;;;;;;5020128;28;20193;-62
2022/06/21 11:24:57;;;;;;;3.35;1.73;;;18.60;99.90;;;;;;5017727;28;20218;-62
2022/06/21 11:27:31;;;;;;;3.72;1.58;;;18.70;99.90;;;;;;4995813;28;23119;-62
2022/06/21 11:30:04;;;;;;;4.30;1.73;;;18.90;99.90;;;;;;4998020;28;20764;-62
2022/06/21 11:32:38;;;;;;;2.53;1.70;;;18.80;99.90;;;;;;5007153;28;20201;-62
2022/06/21 11:35:18;;;;;;;2.90;1.35;;;18.70;99.90;;;;;;4999475;28;20205;-62
2022/06/21 11:37:58;;;;;;;3.35;1.60;;;18.60;99.90;;;;;;5014880;28;20212;-62
2022/06/21 11:40:40;;;;;;;4.18;1.40;;;18.70;99.90;;;;;;5045416;22;20803;-62
2022/06/21 11:43:22;;;;;;;4.00;1.70;;;18.70;99.90;;;;;;5027268;22;22641;-62
2022/06/21 11:45:53;;;;;;;7.10;1.95;;;18.70;99.90;;;;;;5026750;28;20217;-62
2022/06/21 11:48:55;;;;;;;4.82;1.55;;;18.80;99.90;;;;;;5037649;28;20205;-61
2022/06/21 11:51:45;;;;;;;4.28;1.55;;;18.80;99.90;;;;;;5023135;28;20229;-62
2022/06/21 11:54:18;;;;;;;3.00;1.38;;;18.70;99.90;;;;;;5029654;28;20231;-62
2022/06/21 11:56:55;;;;;;;3.78;1.50;;;18.60;99.90;;;;;;5029228;28;20584;-62
2022/06/21 11:59:25;;;;;;;4.95;1.83;;;18.50;99.90;;;;;;5025421;28;20341;-63
2022/06/21 12:02:00;;;;;;;5.72;1.80;;;18.60;99.90;;;;;;5017198;28;20229;-62
2022/06/21 12:04:41;;;;;;;7.43;1.70;;;18.60;99.90;;;;;;5016437;28;20220;-63
2022/06/21 12:07:14;;;;;;;3.60;1.45;;;18.60;99.90;;;;;;5023301;28;20227;-62
2022/06/21 12:09:47;;;;;;;4.63;1.58;;;18.70;99.90;;;;;;5033041;28;21812;-63
2022/06/21 12:12:38;;;;;;;5.28;1.42;;;18.70;99.90;;;;;;5023519;28;20220;-62
2022/06/21 12:15:37;;;;;;;2.72;1.60;;;18.70;99.90;;;;;;5030381;28;20319;-62
2022/06/21 12:18:07;;;;;;;5.97;1.70;;;18.60;99.90;;;;;;5028321;28;20235;-62
2022/06/21 12:20:42;;;;;;;4.05;1.40;;;18.60;99.90;;;;;;5017658;28;20212;-62
2022/06/21 12:23:19;;;;;;;6.38;2.22;;;18.60;99.90;;;;;;5028405;28;20204;-62
2022/06/21 12:25:46;;;;;;;4.88;1.70;;;18.90;99.90;;;;;;5030253;28;20224;-63
2022/06/21 12:28:15;;;;;;;4.07;1.48;;;19.10;99.90;;;;;;5031158;28;20204;-62
2022/06/21 12:30:42;;;;;;;4.55;1.80;;;19.10;99.90;;;;;;5020312;28;20291;-62
2022/06/21 12:33:14;;;;;;;3.85;1.58;;;19.20;99.90;;;;;;5019501;28;20209;-62
2022/06/21 12:35:50;;;;;;;1.90;1.27;;;19.30;99.90;;;;;;5012358;28;20252;-62
2022/06/21 12:38:22;;;;;;;4.05;1.50;;;19.30;99.90;;;;;;5025461;28;20745;-62
2022/06/21 12:41:01;;;;;;;5.65;1.50;;;19.30;99.90;;;;;;5027901;28;20323;-62
2022/06/21 12:43:39;;;;;;;8.02;1.80;;;19.30;99.90;;;;;;5030475;28;20235;-62
2022/06/21 12:46:11;;;;;;;4.85;1.70;;;19.60;99.90;;;;;;5026851;28;20208;-62
2022/06/21 12:48:51;;;;;;;2.05;1.48;;;19.40;99.90;;;;;;5019719;28;20216;-62
2022/06/21 12:51:23;;;;;;;4.47;1.55;;;19.40;99.90;;;;;;5022253;28;20301;-62
2022/06/21 12:54:27;;;;;;;3.58;1.50;;;19.40;99.90;;;;;;5018305;28;20224;-62
2022/06/21 12:57:18;;;;;;;3.63;1.95;;;19.60;99.90;;;;;;5040377;28;20306;-62
2022/06/21 13:00:01;;;;;;;4.65;1.38;;;19.50;99.90;;;;;;5000870;28;20224;-62
2022/06/21 13:02:42;;;;;;;2.70;1.42;;;19.10;99.90;;;;;;5026773;28;20208;-62
2022/06/21 13:05:30;;;;;;;3.65;1.40;;;19.40;99.90;;;;;;5016246;28;20568;-63
2022/06/21 13:08:30;;;;;;;3.35;1.55;;;19.50;99.90;;;;;;5021926;28;20799;-62
2022/06/21 13:11:05;;;;;;;1.77;1.38;;;19.60;99.90;;;;;;5015027;28;20247;-62
2022/06/21 13:13:52;;;;;;;7.07;1.67;;;19.70;99.90;;;;;;5036351;28;20417;-62
2022/06/21 13:16:35;;;;;;;3.63;1.42;;;19.60;99.90;;;;;;5010645;28;20805;-63
2022/06/21 13:19:15;;;;;;;3.60;1.40;;;19.80;99.90;;;;;;5025980;28;20331;-63
2022/06/21 13:21:55;;;;;;;2.60;1.52;;;19.70;99.90;;;;;;5005510;28;20507;-63
2022/06/21 13:24:39;;;;;;;6.13;1.48;;;19.70;99.90;;;;;;5019305;28;20874;-62
2022/06/21 13:27:24;;;;;;;2.40;1.40;;;20.70;99.90;;;;;;5033302;28;20232;-62
2022/06/21 13:30:14;;;;;;;7.75;1.42;;;19.80;99.90;;;;;;5027796;28;20235;-62
2022/06/21 13:32:48;;;;;;;2.85;1.35;;;19.60;99.90;;;;;;5011457;28;20244;-63
2022/06/21 13:35:22;;;;;;;2.55;1.27;;;19.70;99.90;;;;;;5020445;28;20923;-62
2022/06/21 13:37:56;;;;;;;4.35;1.50;;;19.70;99.90;;;;;;5002547;28;20280;-62